createdAt,value
2022-12-09T00:00:22.712Z,12.20
2022-12-09T00:02:54.892Z,11.95
2022-12-09T00:05:27.451Z,12.07
2022-12-09T00:07:59.496Z,12.07
2022-12-09T00:10:31.706Z,11.83
2022-12-09T00:13:03.962Z,11.65
2022-12-09T00:15:36.203Z,11.57
2022-12-09T00:18:09.174Z,11.83
2022-12-09T00:20:41.634Z,12.55
2022-12-09T00:23:13.658Z,12.28
2022-12-09T00:25:45.988Z,12.70
2022-12-09T00:28:18.131Z,12.40
2022-12-09T00:30:50.292Z,11.75
2022-12-09T00:33:22.497Z,11.60
2022-12-09T00:35:54.722Z,12.13
2022-12-09T00:38:27.133Z,12.45
2022-12-09T00:40:59.657Z,11.83
2022-12-09T00:43:32.280Z,11.25
2022-12-09T00:46:04.863Z,11.70
2022-12-09T00:48:38.824Z,11.85
2022-12-09T00:53:44.176Z,12.58
2022-12-09T00:56:16.909Z,11.85
2022-12-09T00:58:49.154Z,11.55
2022-12-09T01:01:21.754Z,11.30
2022-12-09T01:03:54.321Z,11.12
2022-12-09T01:06:28.130Z,11.95
2022-12-09T01:09:00.725Z,10.48
2022-12-09T01:11:32.958Z,11.08
2022-12-09T01:14:05.758Z,10.40
2022-12-09T01:16:38.313Z,11.43
2022-12-09T01:19:13.679Z,10.82
2022-12-09T01:21:45.773Z,10.50
2022-12-09T01:24:17.761Z,10.60
2022-12-09T01:26:50.745Z,9.65
2022-12-09T01:29:24.110Z,9.95
2022-12-09T01:31:57.410Z,10.13
2022-12-09T01:37:01.491Z,9.15
2022-12-09T01:39:34.610Z,9.78
2022-12-09T01:42:08.070Z,9.13
2022-12-09T01:44:40.470Z,9.90
2022-12-09T01:47:15.752Z,9.23
2022-12-09T01:49:48.419Z,8.68
2022-12-09T01:52:23.833Z,9.10
2022-12-09T01:54:56.832Z,9.25
2022-12-09T01:57:29.030Z,8.45
2022-12-09T02:00:01.319Z,8.95
2022-12-09T02:02:38.870Z,9.28
2022-12-09T02:05:12.135Z,8.53
2022-12-09T02:07:45.676Z,8.25
2022-12-09T02:10:20.489Z,9.93
2022-12-09T02:13:07.355Z,8.40
2022-12-09T02:15:58.005Z,8.38
2022-12-09T02:18:45.600Z,8.53
2022-12-09T02:21:29.520Z,8.40
2022-12-09T02:24:20.727Z,8.15
2022-12-09T02:27:18.749Z,7.90
2022-12-09T02:29:54.077Z,7.58
2022-12-09T02:32:35.466Z,8.05
2022-12-09T02:35:18.586Z,8.40
2022-12-09T02:37:57.093Z,7.97
2022-12-09T02:40:36.830Z,7.67
2022-12-09T02:43:11.117Z,8.15
2022-12-09T02:45:45.236Z,8.73
2022-12-09T02:48:20.588Z,8.15
2022-12-09T02:50:55.357Z,8.70
2022-12-09T02:53:29.601Z,8.08
2022-12-09T02:56:03.310Z,9.10
2022-12-09T02:58:37.342Z,9.13
2022-12-09T03:01:22.259Z,10.90
2022-12-09T03:03:55.832Z,9.38
2022-12-09T03:06:30.897Z,10.35
2022-12-09T03:09:06.243Z,9.83
2022-12-09T03:11:40.957Z,8.33
2022-12-09T03:14:18.924Z,9.63
2022-12-09T03:17:06.208Z,9.53
2022-12-09T03:19:44.155Z,10.38
2022-12-09T03:22:19.120Z,10.65
2022-12-09T03:25:01.161Z,9.90
2022-12-09T03:27:41.263Z,9.67
2022-12-09T03:30:14.832Z,9.05
2022-12-09T03:32:48.982Z,10.40
2022-12-09T03:35:23.945Z,10.85
2022-12-09T03:37:56.608Z,10.38
2022-12-09T03:40:32.554Z,10.43
2022-12-09T03:43:07.844Z,10.90
2022-12-09T03:45:42.557Z,9.58
2022-12-09T03:48:15.432Z,11.38
2022-12-09T03:50:57.422Z,11.05
2022-12-09T03:53:47.376Z,10.25
2022-12-09T03:56:23.697Z,8.95
2022-12-09T03:58:57.883Z,10.30
2022-12-09T04:01:32.032Z,10.78
2022-12-09T04:06:37.360Z,11.38
2022-12-09T04:09:11.417Z,11.53
2022-12-09T04:11:46.414Z,11.20
2022-12-09T04:14:21.766Z,11.53
2022-12-09T04:16:57.601Z,14.90
2022-12-09T04:19:30.920Z,13.90
2022-12-09T04:22:06.281Z,13.55
2022-12-09T04:24:40.053Z,13.58
2022-12-09T04:27:14.587Z,10.50
2022-12-09T04:29:49.323Z,14.80
2022-12-09T04:32:23.792Z,15.68
2022-12-09T04:34:56.887Z,16.70
2022-12-09T04:37:30.154Z,17.12
2022-12-09T04:40:04.075Z,16.82
2022-12-09T04:42:37.837Z,17.70
2022-12-09T04:45:11.384Z,17.10
2022-12-09T04:50:17.299Z,17.95
2022-12-09T04:52:50.943Z,19.05
2022-12-09T04:55:26.964Z,16.60
2022-12-09T04:58:00.128Z,16.75
2022-12-09T05:00:36.247Z,17.77
2022-12-09T05:03:09.984Z,17.90
2022-12-09T05:05:43.261Z,17.15
2022-12-09T05:08:16.849Z,16.80
2022-12-09T05:10:51.250Z,16.85
2022-12-09T05:13:24.321Z,18.25
2022-12-09T05:16:12.123Z,18.75
2022-12-09T05:18:40.440Z,17.67
2022-12-09T05:21:16.646Z,17.63
2022-12-09T05:23:49.813Z,17.10
2022-12-09T05:26:24.333Z,18.35
2022-12-09T05:28:57.302Z,17.62
2022-12-09T05:31:31.898Z,18.42
2022-12-09T05:34:05.621Z,16.37
2022-12-09T05:36:39.400Z,18.02
2022-12-09T05:39:12.797Z,17.37
2022-12-09T05:41:47.447Z,18.35
2022-12-09T05:44:19.939Z,18.52
2022-12-09T05:46:52.883Z,18.40
2022-12-09T05:49:26.902Z,18.52
2022-12-09T05:54:33.538Z,17.62
2022-12-09T05:57:06.601Z,18.50
2022-12-09T05:59:40.305Z,19.30
2022-12-09T06:02:14.015Z,18.63
2022-12-09T06:04:47.530Z,17.55
2022-12-09T06:07:22.666Z,17.00
2022-12-09T06:09:56.477Z,18.77
2022-12-09T06:12:31.092Z,18.75
2022-12-09T06:15:04.062Z,19.10
2022-12-09T06:17:37.166Z,19.35
2022-12-09T06:20:10.279Z,19.37
2022-12-09T06:22:43.647Z,19.52
2022-12-09T06:25:16.977Z,18.80
2022-12-09T06:27:49.187Z,17.80
2022-12-09T06:30:22.287Z,18.10
2022-12-09T06:32:54.909Z,18.98
2022-12-09T06:35:28.665Z,19.50
2022-12-09T06:38:01.158Z,16.90
2022-12-09T06:40:34.090Z,19.00
2022-12-09T06:45:41.762Z,19.65
2022-12-09T06:48:16.206Z,18.42
2022-12-09T06:50:53.430Z,18.40
2022-12-09T06:53:26.529Z,18.80
2022-12-09T06:56:11.043Z,18.73
2022-12-09T06:58:41.208Z,18.48
2022-12-09T07:01:17.335Z,20.20
2022-12-09T07:03:54.771Z,20.20
2022-12-09T07:06:39.291Z,19.80
2022-12-09T07:09:20.333Z,20.08
2022-12-09T07:11:54.750Z,21.23
2022-12-09T07:14:27.665Z,19.02
2022-12-09T07:17:03.857Z,19.60
2022-12-09T07:19:37.162Z,19.75
2022-12-09T07:22:10.285Z,20.72
2022-12-09T07:24:43.932Z,20.65
2022-12-09T07:27:19.746Z,20.62
2022-12-09T07:29:52.308Z,20.23
2022-12-09T07:32:26.780Z,19.55
2022-12-09T07:35:00.399Z,19.05
2022-12-09T07:37:34.999Z,20.30
2022-12-09T07:40:09.975Z,19.70
2022-12-09T07:42:44.095Z,21.48
2022-12-09T07:45:17.157Z,19.17
2022-12-09T07:47:50.939Z,19.32
2022-12-09T07:50:26.022Z,18.75
2022-12-09T07:53:01.374Z,19.02
2022-12-09T07:55:36.800Z,17.65
2022-12-09T07:58:09.523Z,18.15
2022-12-09T08:00:42.244Z,18.70
2022-12-09T08:03:16.235Z,18.30
2022-12-09T08:08:23.660Z,20.50
2022-12-09T08:10:58.463Z,22.80
2022-12-09T08:16:08.617Z,18.55
2022-12-09T08:18:42.288Z,21.15
2022-12-09T08:21:21.966Z,19.35
2022-12-09T08:23:57.118Z,15.05
2022-12-09T08:26:33.288Z,18.23
2022-12-09T08:29:12.197Z,19.50
2022-12-09T08:31:45.598Z,18.40
2022-12-09T08:34:19.078Z,18.30
2022-12-09T08:36:52.967Z,18.05
2022-12-09T08:39:27.797Z,18.95
2022-12-09T08:42:00.938Z,17.48
2022-12-09T08:44:34.943Z,18.32
2022-12-09T08:47:07.563Z,16.95
2022-12-09T08:49:41.170Z,16.10
2022-12-09T08:52:14.276Z,17.67
2022-12-09T08:54:48.159Z,18.50
2022-12-09T08:57:26.931Z,16.80
2022-12-09T09:00:02.206Z,17.20
2022-12-09T09:02:35.656Z,16.97
2022-12-09T09:05:09.507Z,12.05
2022-12-09T09:07:42.844Z,15.83
2022-12-09T09:10:18.235Z,16.02
2022-12-09T09:12:51.360Z,18.10
2022-12-09T09:15:25.180Z,17.42
2022-12-09T09:18:00.436Z,18.60
2022-12-09T09:20:33.573Z,16.50
2022-12-09T09:23:06.187Z,13.13
2022-12-09T09:25:46.343Z,18.40
2022-12-09T09:28:20.023Z,13.60
2022-12-09T09:31:04.315Z,15.70
2022-12-09T09:33:37.283Z,16.05
2022-12-09T09:36:18.200Z,15.28
2022-12-09T09:38:53.283Z,15.98
2022-12-09T09:41:50.073Z,15.48
2022-12-09T09:44:40.434Z,15.63
2022-12-09T09:47:23.180Z,13.75
2022-12-09T09:50:17.472Z,11.85
2022-12-09T09:55:32.430Z,14.85
2022-12-09T09:58:23.156Z,14.87
2022-12-09T10:01:12.330Z,15.45
2022-12-09T10:03:51.156Z,17.60
2022-12-09T10:06:43.868Z,16.10
2022-12-09T10:09:23.244Z,15.13
2022-12-09T10:12:15.982Z,14.45
2022-12-09T10:14:55.222Z,14.78
2022-12-09T10:17:42.860Z,15.98
2022-12-09T10:20:19.011Z,14.00
2022-12-09T10:23:04.215Z,16.40
2022-12-09T10:25:40.930Z,17.35
2022-12-09T10:28:20.961Z,15.65
2022-12-09T10:30:55.799Z,15.53
2022-12-09T10:33:32.444Z,14.85
2022-12-09T10:36:07.794Z,16.35
2022-12-09T10:38:42.716Z,14.35
2022-12-09T10:41:28.930Z,15.85
2022-12-09T10:44:05.240Z,14.63
2022-12-09T10:46:37.960Z,16.23
2022-12-09T10:49:13.683Z,17.62
2022-12-09T10:51:51.755Z,17.73
2022-12-09T10:54:40.152Z,18.15
2022-12-09T10:57:16.414Z,17.90
2022-12-09T11:00:11.154Z,16.90
2022-12-09T11:02:47.740Z,16.93
2022-12-09T11:05:28.761Z,17.12
2022-12-09T11:08:03.253Z,18.17
2022-12-09T11:10:39.997Z,14.87
2022-12-09T11:13:16.904Z,15.10
2022-12-09T11:15:57.702Z,15.40
2022-12-09T11:18:33.935Z,15.48
2022-12-09T11:21:08.992Z,15.45
2022-12-09T11:23:45.545Z,15.55
2022-12-09T11:26:24.662Z,15.55
2022-12-09T11:29:04.727Z,15.65
2022-12-09T11:31:45.814Z,15.90
2022-12-09T11:34:26.526Z,15.00
2022-12-09T11:37:03.722Z,15.63
2022-12-09T11:39:38.933Z,14.53
2022-12-09T11:42:22.743Z,14.65
2022-12-09T11:45:06.278Z,14.93
2022-12-09T11:48:22.609Z,14.40
2022-12-09T11:50:26.091Z,14.73
2022-12-09T11:53:13.911Z,13.98
2022-12-09T11:55:52.530Z,12.88
2022-12-09T11:58:50.119Z,13.83
2022-12-09T12:01:29.363Z,13.00
2022-12-09T12:04:09.657Z,14.25
2022-12-09T12:06:56.263Z,15.60
2022-12-09T12:09:32.104Z,16.87
2022-12-09T12:12:17.560Z,14.53
2022-12-09T12:14:51.864Z,16.30
2022-12-09T12:20:14.965Z,14.10
2022-12-09T12:23:13.780Z,14.60
2022-12-09T12:26:16.773Z,14.55
2022-12-09T12:29:06.897Z,14.98
2022-12-09T12:31:54.471Z,15.30
2022-12-09T12:34:39.846Z,11.48
2022-12-09T12:37:30.912Z,14.80
2022-12-09T12:40:10.825Z,13.32
2022-12-09T12:42:48.335Z,14.63
2022-12-09T12:45:42.092Z,14.10
2022-12-09T12:48:18.819Z,13.78
2022-12-09T12:51:13.550Z,12.85
2022-12-09T12:56:32.298Z,13.85
2022-12-09T12:59:25.990Z,13.65
2022-12-09T13:02:21.296Z,13.58
2022-12-09T13:05:00.513Z,13.90
2022-12-09T13:07:45.890Z,13.45
2022-12-09T13:10:24.126Z,12.85
2022-12-09T13:13:01.246Z,11.80
2022-12-09T13:15:40.642Z,12.43
2022-12-09T13:18:16.729Z,12.55
2022-12-09T13:20:52.985Z,12.23
2022-12-09T13:23:46.750Z,12.00
2022-12-09T13:26:26.701Z,9.55
2022-12-09T13:29:35.754Z,12.95
2022-12-09T13:32:18.015Z,6.53
2022-12-09T13:34:55.076Z,11.93
2022-12-09T13:37:39.383Z,11.78
2022-12-09T13:40:24.340Z,12.30
2022-12-09T13:43:06.676Z,11.45
2022-12-09T13:45:47.817Z,12.10
2022-12-09T13:48:24.015Z,11.63
2022-12-09T13:51:00.351Z,13.15
2022-12-09T13:53:40.096Z,12.18
2022-12-09T13:56:29.444Z,12.63
2022-12-09T13:59:25.001Z,12.78
2022-12-09T14:02:17.927Z,11.78
2022-12-09T14:05:00.200Z,10.95
2022-12-09T14:07:38.208Z,12.33
2022-12-09T14:10:43.270Z,11.43
2022-12-09T14:13:31.536Z,11.90
2022-12-09T14:16:29.120Z,11.30
2022-12-09T14:19:21.542Z,10.93
2022-12-09T14:22:20.357Z,11.57
2022-12-09T14:24:56.469Z,11.40
2022-12-09T14:27:31.586Z,10.98
2022-12-09T14:30:07.885Z,7.55
2022-12-09T14:32:55.224Z,10.58
2022-12-09T14:35:49.410Z,11.30
2022-12-09T14:39:08.291Z,12.82
2022-12-09T14:41:30.649Z,10.35
2022-12-09T14:44:23.063Z,10.60
2022-12-09T14:47:03.334Z,12.30
2022-12-09T14:49:42.784Z,9.75
2022-12-09T14:52:16.457Z,11.38
2022-12-09T14:54:53.460Z,11.43
2022-12-09T14:57:30.298Z,11.05
2022-12-09T15:00:06.309Z,11.70
2022-12-09T15:02:38.872Z,10.72
2022-12-09T15:05:18.031Z,8.38
2022-12-09T15:07:52.449Z,12.47
2022-12-09T15:10:32.078Z,11.15
2022-12-09T15:13:03.977Z,12.07
2022-12-09T15:15:39.708Z,11.48
2022-12-09T15:18:24.288Z,12.05
2022-12-09T15:21:01.921Z,11.38
2022-12-09T15:23:41.294Z,11.25
2022-12-09T15:26:23.242Z,10.72
2022-12-09T15:28:59.770Z,10.28
2022-12-09T15:31:35.137Z,12.15
2022-12-09T15:34:15.217Z,12.45
2022-12-09T15:36:51.841Z,11.45
2022-12-09T15:39:31.047Z,10.78
2022-12-09T15:42:08.147Z,10.30
2022-12-09T15:45:03.920Z,10.60
2022-12-09T15:47:46.052Z,11.53
2022-12-09T15:50:33.427Z,10.68
2022-12-09T15:53:09.679Z,11.70
2022-12-09T15:55:45.308Z,12.25
2022-12-09T15:58:24.247Z,11.10
2022-12-09T16:00:58.160Z,11.70
2022-12-09T16:03:35.507Z,10.75
2022-12-09T16:06:10.164Z,11.38
2022-12-09T16:08:45.524Z,11.90
2022-12-09T16:11:39.270Z,12.20
2022-12-09T16:14:13.324Z,12.07
2022-12-09T16:16:49.172Z,11.38
2022-12-09T16:19:34.936Z,11.55
2022-12-09T16:22:11.405Z,11.57
2022-12-09T16:27:24.835Z,11.73
2022-12-09T16:30:01.200Z,13.45
2022-12-09T16:32:43.113Z,13.25
2022-12-09T16:35:19.950Z,13.45
2022-12-09T16:38:01.381Z,11.63
2022-12-09T16:40:49.130Z,12.80
2022-12-09T16:43:24.065Z,12.03
2022-12-09T16:46:00.322Z,13.05
2022-12-09T16:48:33.453Z,12.65
2022-12-09T16:51:18.248Z,11.78
2022-12-09T16:53:53.840Z,12.50
2022-12-09T16:56:28.714Z,12.13
2022-12-09T16:59:00.993Z,12.18
2022-12-09T17:01:36.947Z,12.23
2022-12-09T17:04:17.999Z,12.35
2022-12-09T17:06:50.354Z,12.35
2022-12-09T17:09:22.536Z,12.82
2022-12-09T17:11:54.749Z,12.20
2022-12-09T17:14:27.615Z,11.97
2022-12-09T17:17:03.368Z,12.82
2022-12-09T17:19:38.197Z,12.07
2022-12-09T17:22:10.520Z,13.25
2022-12-09T17:24:42.818Z,12.73
2022-12-09T17:27:14.880Z,12.28
2022-12-09T17:29:47.888Z,11.83
2022-12-09T17:32:20.262Z,11.90
2022-12-09T17:34:54.279Z,12.50
2022-12-09T17:37:26.555Z,13.55
2022-12-09T17:40:06.624Z,13.83
2022-12-09T17:42:33.885Z,13.93
2022-12-09T17:45:07.344Z,13.03
2022-12-09T17:47:39.618Z,12.50
2022-12-09T17:50:11.752Z,13.45
2022-12-09T17:52:43.806Z,12.95
2022-12-09T17:55:15.868Z,13.65
2022-12-09T17:57:53.931Z,12.58
2022-12-09T18:00:21.795Z,12.93
2022-12-09T18:02:53.757Z,14.18
2022-12-09T18:05:25.819Z,12.43
2022-12-09T18:07:58.393Z,12.53
2022-12-09T18:10:30.350Z,13.35
2022-12-09T18:13:03.026Z,13.60
2022-12-09T18:15:39.657Z,14.03
2022-12-09T18:18:12.186Z,13.65
2022-12-09T18:20:44.276Z,15.48
2022-12-09T18:23:16.373Z,13.55
2022-12-09T18:25:49.043Z,14.58
2022-12-09T18:28:21.112Z,13.93
2022-12-09T18:30:53.334Z,13.65
2022-12-09T18:33:25.995Z,12.25
2022-12-09T18:35:58.176Z,13.83
2022-12-09T18:38:30.742Z,14.00
2022-12-09T18:41:02.942Z,13.10
2022-12-09T18:43:38.129Z,12.98
2022-12-09T18:46:13.782Z,13.45
2022-12-09T18:48:46.840Z,13.65
2022-12-09T18:51:21.459Z,11.35
2022-12-09T18:53:54.591Z,13.35
2022-12-09T18:56:27.399Z,14.35
2022-12-09T18:59:08.968Z,14.70
2022-12-09T19:01:35.988Z,14.05
2022-12-09T19:04:09.329Z,13.55
2022-12-09T19:06:43.131Z,14.85
2022-12-09T19:09:18.191Z,14.23
2022-12-09T19:11:52.182Z,14.15
2022-12-09T19:14:25.464Z,14.00
2022-12-09T19:16:57.937Z,14.30
2022-12-09T19:19:30.798Z,13.72
2022-12-09T19:22:03.792Z,14.18
2022-12-09T19:24:42.678Z,14.85
2022-12-09T19:27:10.801Z,14.28
2022-12-09T19:29:42.946Z,15.08
2022-12-09T19:32:50.854Z,14.53
2022-12-09T19:34:48.628Z,12.88
2022-12-09T19:37:20.527Z,14.33
2022-12-09T19:39:53.245Z,13.95
2022-12-09T19:42:25.586Z,13.85
2022-12-09T19:45:02.334Z,14.28
2022-12-09T19:47:33.161Z,13.78
2022-12-09T19:50:05.939Z,13.25
2022-12-09T19:52:38.175Z,14.07
2022-12-09T19:55:10.847Z,13.58
2022-12-09T19:57:43.125Z,13.75
2022-12-09T20:00:15.750Z,13.90
2022-12-09T20:02:49.583Z,15.55
2022-12-09T20:05:21.674Z,14.58
2022-12-09T20:07:54.320Z,14.70
2022-12-09T20:10:26.325Z,14.73
2022-12-09T20:12:58.519Z,14.95
2022-12-09T20:15:30.783Z,15.63
2022-12-09T20:18:02.663Z,16.15
2022-12-09T20:20:36.225Z,16.37
2022-12-09T20:23:08.595Z,15.70
2022-12-09T20:25:40.995Z,16.12
2022-12-09T20:28:13.059Z,15.55
2022-12-09T20:30:45.690Z,15.65
2022-12-09T20:33:17.783Z,16.65
2022-12-09T20:35:49.964Z,15.58
2022-12-09T20:38:22.353Z,15.50
2022-12-09T20:40:54.382Z,18.20
2022-12-09T20:43:26.607Z,16.42
2022-12-09T20:45:58.625Z,17.23
2022-12-09T20:48:31.502Z,16.40
2022-12-09T20:51:08.101Z,16.05
2022-12-09T20:53:43.074Z,15.85
2022-12-09T20:56:15.722Z,16.05
2022-12-09T20:58:51.148Z,15.93
2022-12-09T21:01:26.180Z,13.95
2022-12-09T21:03:59.937Z,15.35
2022-12-09T21:06:35.037Z,15.18
2022-12-09T21:09:10.492Z,16.02
2022-12-09T21:11:42.980Z,15.58
2022-12-09T21:14:18.535Z,16.02
2022-12-09T21:16:53.634Z,15.93
2022-12-09T21:19:27.635Z,16.95
2022-12-09T21:22:00.362Z,14.73
2022-12-09T21:24:33.958Z,16.35
2022-12-09T21:27:06.545Z,15.70
2022-12-09T21:29:39.282Z,15.58
2022-12-09T21:32:11.229Z,17.35
2022-12-09T21:34:43.471Z,16.95
2022-12-09T21:37:15.629Z,14.83
2022-12-09T21:39:47.931Z,14.35
2022-12-09T21:42:19.937Z,12.40
2022-12-09T21:44:51.860Z,13.00
2022-12-09T21:47:24.351Z,14.15
2022-12-09T21:49:57.221Z,11.88
2022-12-09T21:52:29.791Z,13.53
2022-12-09T21:55:02.546Z,12.53
2022-12-09T21:57:36.273Z,14.75
2022-12-09T22:00:10.747Z,14.05
2022-12-09T22:02:44.613Z,13.98
2022-12-09T22:05:17.166Z,12.63
2022-12-09T22:07:50.909Z,13.10
2022-12-09T22:10:23.219Z,13.30
2022-12-09T22:12:56.013Z,12.73
2022-12-09T22:15:28.573Z,11.18
2022-12-09T22:18:01.469Z,11.28
2022-12-09T22:21:07.934Z,11.57
2022-12-09T22:23:07.895Z,10.82
2022-12-09T22:25:40.608Z,11.15
2022-12-09T22:28:12.808Z,10.98
2022-12-09T22:30:44.922Z,10.78
2022-12-09T22:33:17.145Z,11.20
2022-12-09T22:35:49.490Z,11.22
2022-12-09T22:38:22.353Z,10.85
2022-12-09T22:40:54.387Z,14.75
2022-12-09T22:43:27.351Z,13.53
2022-12-09T22:46:07.903Z,13.53
2022-12-09T22:48:41.057Z,13.30
2022-12-09T22:51:17.616Z,13.60
2022-12-09T22:53:51.290Z,14.00
2022-12-09T22:56:25.014Z,12.93
2022-12-09T22:58:57.257Z,13.62
2022-12-09T23:01:33.086Z,12.70
2022-12-09T23:04:07.053Z,11.70
2022-12-09T23:06:40.915Z,12.58
2022-12-09T23:09:16.204Z,12.37
2022-12-09T23:11:49.163Z,11.68
2022-12-09T23:14:22.070Z,12.65
2022-12-09T23:16:54.294Z,12.85
2022-12-09T23:19:26.887Z,11.53
2022-12-09T23:21:59.483Z,11.95
2022-12-09T23:24:31.736Z,11.35
2022-12-09T23:27:04.720Z,10.70
2022-12-09T23:29:36.963Z,11.18
2022-12-09T23:32:09.347Z,11.93
2022-12-09T23:34:41.589Z,9.75
2022-12-09T23:37:15.071Z,10.68
2022-12-09T23:39:49.115Z,11.43
2022-12-09T23:44:54.079Z,10.38
2022-12-09T23:47:26.667Z,10.30
2022-12-09T23:49:58.890Z,10.48
2022-12-09T23:52:30.941Z,11.00
2022-12-09T23:55:04.667Z,11.12
2022-12-09T23:57:36.903Z,10.13
